Time;durP1;ratioP1;P1;durP2;ratioP2;P2;SDS_P1;SDS_P2;PMS_P1;PMS_P2;Temp;Humidity;BMP_temperature;BMP_pressure;BME280_temperature;BME280_humidity;BME280_pressure;Samples;Min_cycle;Max_cycle;Signal;HPM_P1;HPM_P2
2022/05/22 00:01:05;;;;;;;;;7.67;6.67;;;;;19.43;52.36;101454.31;6279084;22;45223;-86
2022/05/22 00:03:31;;;;;;;;;6.00;5.33;;;;;19.40;52.46;101454.41;6278647;22;46905;-85
2022/05/22 00:05:57;;;;;;;;;5.00;4.50;;;;;19.36;52.26;101447.44;6279044;22;45902;-85
2022/05/22 00:08:25;;;;;;;;;6.67;6.00;;;;;19.31;52.65;101442.22;6279138;22;45405;-85
2022/05/22 00:10:51;;;;;;;;;5.33;4.33;;;;;19.28;52.34;101452.97;6279065;22;45457;-84
2022/05/22 00:13:18;;;;;;;;;7.75;7.75;;;;;19.27;53.04;101456.59;6280854;22;45626;-86
2022/05/22 00:16:36;;;;;;;;;9.00;6.00;;;;;19.27;52.87;101459.25;6279761;22;45222;-86
2022/05/22 00:18:29;;;;;;;;;6.67;5.67;;;;;19.27;52.66;101456.59;6280554;22;45404;-86
2022/05/22 00:20:57;;;;;;;;;8.75;7.25;;;;;19.25;52.97;101445.06;6278866;22;45449;-86
2022/05/22 00:23:28;;;;;;;;;4.00;4.00;;;;;19.24;52.97;101448.63;6280926;22;46172;-86
2022/05/22 00:25:56;;;;;;;;;6.67;6.00;;;;;19.24;52.93;101445.97;6279528;22;45227;-85
2022/05/22 00:28:21;;;;;;;;;4.50;4.50;;;;;19.25;53.42;101441.53;6278555;22;45359;-84
2022/05/22 00:30:49;;;;;;;;;6.67;6.00;;;;;19.22;53.10;101439.81;6277359;22;45403;-84
2022/05/22 00:33:15;;;;;;;;;4.00;4.00;;;;;19.20;52.99;101440.78;6276871;22;46963;-85
2022/05/22 00:35:41;;;;;;;;;9.25;6.75;;;;;19.17;53.37;101437.28;6278715;22;45288;-85
2022/05/22 00:38:06;;;;;;;;;6.75;5.50;;;;;19.16;53.30;101446.22;6281356;22;45370;-86
2022/05/22 00:40:32;;;;;;;;;6.75;6.00;;;;;19.15;53.53;101436.44;6280671;22;45544;-85
2022/05/22 00:42:58;;;;;;;;;3.00;2.00;;;;;19.10;53.39;101438.34;6311945;22;46352;-86
2022/05/22 00:45:24;;;;;;;;;7.00;5.50;;;;;19.02;53.36;101420.81;6284574;22;45586;-85
2022/05/22 00:47:53;;;;;;;;;6.50;5.00;;;;;18.99;53.84;101426.25;6312935;22;45428;-86
2022/05/22 00:50:21;;;;;;;;;8.00;8.00;;;;;18.97;53.60;101415.59;6285903;22;45240;-85
2022/05/22 00:52:55;;;;;;;;;5.00;4.00;;;;;18.97;54.19;101412.91;6286291;22;47374;-86
2022/05/22 00:55:26;;;;;;;;;5.25;5.00;;;;;18.95;54.04;101410.31;6312847;22;45108;-86
2022/05/22 00:58:04;;;;;;;;;6.50;5.25;;;;;18.94;53.82;101392.53;6313114;22;45276;-86
2022/05/22 01:00:35;;;;;;;;;5.50;5.00;;;;;18.94;54.08;101397.00;6284568;22;45471;-86
2022/05/22 01:05:50;;;;;;;;;6.25;5.25;;;;;18.94;54.11;101392.53;6312232;22;45318;-86
2022/05/22 01:08:18;;;;;;;;;6.25;5.00;;;;;18.96;54.21;101384.50;6312471;22;45259;-86
2022/05/22 01:10:48;;;;;;;;;6.75;5.75;;;;;18.99;53.87;101380.88;6284828;22;45185;-86
2022/05/22 01:13:18;;;;;;;;;4.50;3.75;;;;;18.97;53.93;101375.56;6284265;22;46386;-86
2022/05/22 01:15:44;;;;;;;;;6.33;6.00;;;;;18.95;54.01;101375.63;6312822;22;45217;-85
2022/05/22 01:18:17;;;;;;;;;5.75;5.75;;;;;18.92;54.43;101380.16;6284467;22;45413;-86
2022/05/22 01:20:51;;;;;;;;;11.75;7.00;;;;;18.87;54.42;101377.63;6284128;22;45517;-85
2022/05/22 01:23:18;;;;;;;;;11.00;8.00;;;;;18.84;54.46;101377.69;6284250;22;46651;-87
2022/05/22 01:25:44;;;;;;;;;11.00;9.75;;;;;18.81;54.63;101375.13;6284115;22;45184;-85
2022/05/22 01:28:12;;;;;;;;;10.00;10.00;;;;;18.80;54.43;101372.50;6312493;22;45236;-86
2022/05/22 01:30:38;;;;;;;;;9.50;9.50;;;;;18.78;54.41;101371.66;6284055;22;45522;-85
2022/05/22 01:33:04;;;;;;;;;11.25;10.75;;;;;18.77;54.78;101370.81;6284115;22;47034;-86
2022/05/22 01:35:30;;;;;;;;;9.00;8.75;;;;;18.74;54.61;101368.19;6312182;22;45098;-86
2022/05/22 01:37:57;;;;;;;;;9.75;8.00;;;;;18.75;54.54;101367.28;6312653;22;45301;-85
2022/05/22 01:40:23;;;;;;;;;12.50;11.50;;;;;18.73;54.75;101371.75;6310175;22;45467;-86
2022/05/22 01:42:49;;;;;;;;;9.75;9.50;;;;;18.71;54.59;101368.25;6312435;22;46401;-86
2022/05/22 01:45:18;;;;;;;;;9.50;9.50;;;;;18.67;54.60;101364.81;6283960;22;44822;-87
2022/05/22 01:47:44;;;;;;;;;6.50;5.75;;;;;18.67;54.73;101362.13;6284795;22;45322;-86
2022/05/22 01:50:11;;;;;;;;;8.25;8.25;;;;;18.67;54.99;101347.94;6284386;22;45441;-86
2022/05/22 01:52:41;;;;;;;;;10.00;8.75;;;;;18.66;54.73;101354.19;6312626;22;46218;-86
2022/05/22 01:55:08;;;;;;;;;5.75;5.25;;;;;18.62;54.97;101353.38;6284518;22;45319;-87
2022/05/22 01:57:34;;;;;;;;;8.25;8.00;;;;;18.61;54.84;101358.78;6312729;22;45337;-86
2022/05/22 02:00:00;;;;;;;;;8.25;5.75;;;;;18.61;54.99;101362.31;6284340;22;45287;-85
2022/05/22 02:02:26;;;;;;;;;9.50;8.00;;;;;18.60;54.83;101357.00;6284108;22;47313;-86
2022/05/22 02:04:54;;;;;;;;;6.75;6.75;;;;;18.58;54.88;101342.81;6283976;22;45101;-86
2022/05/22 02:10:05;;;;;;;;;7.00;6.00;;;;;18.59;55.17;101355.25;6313011;22;45171;-87
2022/05/22 02:12:31;;;;;;;;;5.50;5.50;;;;;18.58;54.92;101362.41;6284260;22;48396;-85
2022/05/22 02:14:57;;;;;;;;;8.00;7.25;;;;;18.59;54.84;101368.59;6284464;22;45322;-87
2022/05/22 02:17:25;;;;;;;;;6.75;6.75;;;;;18.56;55.04;101356.22;6313362;22;45345;-86
2022/05/22 02:19:51;;;;;;;;;7.50;7.50;;;;;18.57;54.85;101359.75;6313288;22;45207;-87
2022/05/22 02:22:16;;;;;;;;;8.00;6.00;;;;;18.57;54.96;101367.75;6284675;22;47958;-86
2022/05/22 02:24:42;;;;;;;;;6.67;6.67;;;;;18.54;55.04;101371.38;6312101;22;45221;-85
2022/05/22 02:27:09;;;;;;;;;7.00;7.00;;;;;18.52;55.41;101359.88;6284882;22;45258;-86
2022/05/22 02:29:36;;;;;;;;;8.00;7.75;;;;;18.50;55.00;101365.25;6284321;22;46338;-85
2022/05/22 02:32:03;;;;;;;;;6.25;6.25;;;;;18.47;55.34;101364.44;6284826;22;46970;-85
2022/05/22 02:34:33;;;;;;;;;8.75;7.75;;;;;18.43;55.31;101358.34;6312247;22;45290;-86
2022/05/22 02:36:59;;;;;;;;;8.00;8.00;;;;;18.43;55.63;101365.47;6284425;22;45228;-86
2022/05/22 02:39:25;;;;;;;;;7.75;7.50;;;;;18.41;55.43;101372.63;6311292;22;45370;-88
2022/05/22 02:41:50;;;;;;;;;7.25;6.25;;;;;18.39;55.84;101374.44;6312629;22;45295;-86
2022/05/22 02:44:16;;;;;;;;;7.00;7.00;;;;;18.34;55.59;101374.59;6284549;22;45267;-87
2022/05/22 02:46:42;;;;;;;;;12.00;9.50;;;;;18.30;55.55;101376.44;6284413;22;45437;-86
2022/05/22 02:49:11;;;;;;;;;7.25;6.00;;;;;18.27;55.86;101386.31;6283246;22;45303;-86
2022/05/22 02:51:36;;;;;;;;;6.50;6.50;;;;;18.24;55.92;101389.06;6283510;22;47718;-86
2022/05/22 02:54:03;;;;;;;;;8.75;7.75;;;;;18.20;55.95;101380.28;6283493;22;45242;-85
2022/05/22 02:56:29;;;;;;;;;6.00;6.00;;;;;18.21;55.81;101370.47;6283959;22;45288;-83
2022/05/22 02:58:57;;;;;;;;;11.00;7.50;;;;;18.23;56.24;101373.97;6311625;22;45164;-85
2022/05/22 03:01:23;;;;;;;;;8.00;7.00;;;;;18.23;55.81;101376.63;6311408;22;45376;-86
2022/05/22 03:03:51;;;;;;;;;10.00;9.00;;;;;18.22;56.02;101375.75;6283611;22;45373;-86
2022/05/22 03:09:04;;;;;;;;;12.50;11.75;;;;;18.19;56.31;101373.16;6313581;22;45165;-85
2022/05/22 03:11:30;;;;;;;;;12.00;11.75;;;;;18.17;56.21;101368.78;6284528;22;47941;-84
2022/05/22 03:13:56;;;;;;;;;11.25;11.25;;;;;18.16;56.78;101365.25;6284375;22;45261;-85
2022/05/22 03:16:21;;;;;;;;;12.25;10.50;;;;;18.18;56.58;101367.91;6283799;22;45361;-86
2022/05/22 03:18:47;;;;;;;;;14.50;13.75;;;;;18.16;56.43;101361.72;6312281;22;45267;-86
2022/05/22 03:21:13;;;;;;;;;10.75;10.75;;;;;18.19;56.82;101354.50;6312493;22;45337;-85
2022/05/22 03:23:42;;;;;;;;;13.25;12.50;;;;;18.18;56.37;101350.13;6284176;22;45477;-86
2022/05/22 03:26:09;;;;;;;;;11.75;10.50;;;;;18.16;56.49;101338.59;6284227;22;45172;-86
2022/05/22 03:28:38;;;;;;;;;12.75;12.25;;;;;18.16;56.41;101337.75;6284285;22;45453;-86
2022/05/22 03:31:03;;;;;;;;;11.50;11.00;;;;;18.13;56.55;101336.03;6311569;22;46274;-85
2022/05/22 03:33:29;;;;;;;;;14.25;12.25;;;;;18.08;56.51;101330.81;6283566;22;45356;-86
2022/05/22 03:35:57;;;;;;;;;17.25;14.75;;;;;18.07;56.47;101326.41;6311829;22;45377;-86
2022/05/22 03:38:23;;;;;;;;;10.25;9.00;;;;;18.06;56.65;101329.97;6282784;22;45377;-86
2022/05/22 03:40:48;;;;;;;;;12.25;9.00;;;;;18.04;56.37;101328.25;6311690;22;45569;-87
2022/05/22 03:43:17;;;;;;;;;9.75;8.50;;;;;17.98;56.58;101321.28;6312246;22;45202;-86
2022/05/22 03:45:45;;;;;;;;;8.50;8.50;;;;;17.95;56.73;101321.38;6284023;22;45278;-86
2022/05/22 03:48:11;;;;;;;;;7.75;6.00;;;;;17.97;56.61;101332.88;6283484;22;45422;-86
2022/05/22 03:50:40;;;;;;;;;8.50;7.00;;;;;17.93;56.59;101325.00;6283859;22;47027;-87
2022/05/22 03:53:06;;;;;;;;;9.00;9.00;;;;;17.91;56.41;101324.13;6284491;22;45381;-86
2022/05/22 03:55:31;;;;;;;;;8.50;8.25;;;;;17.86;56.44;101329.59;6283980;22;45385;-86
2022/05/22 03:57:58;;;;;;;;;8.00;8.00;;;;;17.84;56.67;101326.09;6283624;22;45381;-86
2022/05/22 04:00:24;;;;;;;;;7.75;7.75;;;;;17.82;56.62;101322.59;6283698;22;47701;-86
2022/05/22 04:02:50;;;;;;;;;8.00;8.00;;;;;17.81;56.75;101320.84;6283309;22;45303;-85
2022/05/22 04:05:16;;;;;;;;;8.25;8.25;;;;;17.78;56.39;101302.25;6311759;22;45416;-86
2022/05/22 04:07:44;;;;;;;;;10.25;9.50;;;;;17.77;56.87;101304.00;6311308;22;45579;-85
2022/05/22 04:10:11;;;;;;;;;8.25;8.25;;;;;17.74;57.06;101304.09;6283955;22;48150;-85
2022/05/22 04:12:38;;;;;;;;;6.75;6.75;;;;;17.70;56.91;101297.09;6283743;22;45370;-86
2022/05/22 04:15:09;;;;;;;;;9.25;7.50;;;;;17.70;57.06;101296.25;6283642;22;45414;-87
2022/05/22 04:17:35;;;;;;;;;9.75;7.75;;;;;17.69;56.49;101298.00;6309685;22;45303;-87
2022/05/22 04:20:01;;;;;;;;;8.25;8.25;;;;;17.68;57.02;101287.41;6284951;22;47907;-85
2022/05/22 04:22:26;;;;;;;;;7.75;7.25;;;;;17.74;56.95;101295.22;6283642;22;45340;-86
2022/05/22 04:27:41;;;;;;;;;11.00;10.00;;;;;17.74;57.16;101295.22;6312803;22;45377;-86
2022/05/22 04:30:09;;;;;;;;;8.00;8.00;;;;;17.77;57.11;101304.00;6284931;22;47139;-86
2022/05/22 04:32:37;;;;;;;;;8.25;7.25;;;;;17.76;56.83;101294.28;6284518;22;45434;-86
2022/05/22 04:35:03;;;;;;;;;6.75;5.25;;;;;17.75;56.75;101299.63;6284629;22;45337;-85
2022/05/22 04:37:31;;;;;;;;;9.25;7.25;;;;;17.76;56.76;101301.41;6285166;22;45505;-85
2022/05/22 04:39:57;;;;;;;;;9.00;9.00;;;;;17.76;56.96;101302.28;6279688;22;48195;-85
2022/05/22 04:42:25;;;;;;;;;7.50;7.00;;;;;17.78;57.10;101304.91;6278875;22;45139;-85
2022/05/22 04:44:53;;;;;;;;;10.00;9.00;;;;;17.78;56.79;101305.78;6279031;22;45425;-85
2022/05/22 04:47:21;;;;;;;;;8.00;8.00;;;;;17.79;57.17;101306.69;6280667;22;45265;-86
2022/05/22 04:49:52;;;;;;;;;11.00;9.25;;;;;17.80;57.16;101309.31;6277877;22;47057;-85
2022/05/22 04:52:26;;;;;;;;;9.25;7.50;;;;;17.84;57.46;101315.44;6278343;22;45385;-86
2022/05/22 04:54:52;;;;;;;;;9.50;9.50;;;;;17.87;57.48;101318.03;6280658;22;45380;-86
2022/05/22 04:57:20;;;;;;;;;8.25;7.00;;;;;17.91;57.31;101317.06;6280254;22;45363;-85
2022/05/22 04:59:46;;;;;;;;;7.00;7.00;;;;;17.94;57.00;101324.09;6280613;22;45336;-86
2022/05/22 05:02:11;;;;;;;;;9.25;9.25;;;;;17.95;57.19;101323.16;6278362;22;45635;-86
2022/05/22 05:04:37;;;;;;;;;9.75;9.75;;;;;17.97;57.43;101324.88;6278216;22;45480;-86
2022/05/22 05:07:07;;;;;;;;;9.25;8.00;;;;;18.04;57.08;101328.25;6278075;22;45191;-85
2022/05/22 05:09:34;;;;;;;;;8.50;7.75;;;;;18.08;56.80;101321.94;6278414;22;46819;-86
2022/05/22 05:12:01;;;;;;;;;10.50;9.50;;;;;18.12;57.00;101320.06;6278355;22;45227;-86
2022/05/22 05:14:26;;;;;;;;;11.25;8.75;;;;;18.17;56.82;101320.81;6278959;22;45207;-85
2022/05/22 05:17:01;;;;;;;;;10.25;8.50;;;;;18.21;56.91;101319.84;6281520;22;45160;-85
2022/05/22 05:19:29;;;;;;;;;9.00;9.00;;;;;18.25;57.11;101322.38;6279086;22;46021;-86
2022/05/22 05:21:59;;;;;;;;;10.00;9.00;;;;;18.35;57.37;101319.47;6277268;22;45381;-86
2022/05/22 05:24:33;;;;;;;;;10.75;9.75;;;;;18.43;56.79;101315.69;6277445;22;45204;-86
2022/05/22 05:26:59;;;;;;;;;8.00;8.00;;;;;18.52;56.56;101326.09;6280495;22;45438;-86
2022/05/22 05:29:28;;;;;;;;;11.00;11.00;;;;;18.61;56.99;101322.31;6280952;22;45480;-86
2022/05/22 05:31:54;;;;;;;;;10.00;10.00;;;;;18.70;56.53;101327.38;6279251;22;46062;-86
2022/05/22 05:34:31;;;;;;;;;11.75;9.50;;;;;18.80;56.19;101330.69;6279890;22;45195;-85
2022/05/22 05:36:59;;;;;;;;;9.50;9.50;;;;;18.87;55.84;101329.59;6279682;22;45329;-85
2022/05/22 05:39:27;;;;;;;;;7.75;7.75;;;;;18.96;55.78;101339.13;6276419;22;48196;-85
2022/05/22 05:41:56;;;;;;;;;9.50;9.25;;;;;19.04;55.71;101341.59;6277822;22;45509;-87
2022/05/22 05:44:23;;;;;;;;;12.25;11.75;;;;;19.12;55.67;101339.56;6281450;22;45336;-85
2022/05/22 05:46:48;;;;;;;;;11.75;11.00;;;;;19.15;55.54;101343.00;6281320;22;45298;-86
2022/05/22 05:49:14;;;;;;;;;11.00;10.00;;;;;19.18;54.95;101331.38;6279654;22;47064;-86
2022/05/22 05:51:42;;;;;;;;;11.00;10.25;;;;;19.27;55.36;101339.13;6280945;22;45312;-86
2022/05/22 05:54:08;;;;;;;;;9.50;9.50;;;;;19.33;54.45;101325.56;6279033;22;45263;-86
2022/05/22 05:56:38;;;;;;;;;14.00;13.00;;;;;19.39;54.55;101313.81;6276741;22;45157;-85
2022/05/22 05:59:05;;;;;;;;;16.50;15.25;;;;;19.48;54.58;101320.66;6276925;22;47941;-91
2022/05/22 06:01:30;;;;;;;;;9.75;9.75;;;;;19.53;54.24;101310.72;6277383;22;45236;-86
2022/05/22 06:03:56;;;;;;;;;12.50;10.00;;;;;19.53;53.88;101308.03;6279102;22;45187;-87
2022/05/22 06:06:27;;;;;;;;;15.00;11.25;;;;;19.56;54.21;101306.13;6277699;22;45502;-87
2022/05/22 06:08:53;;;;;;;;;9.75;8.25;;;;;19.61;53.78;101304.19;6277088;22;46976;-92
2022/05/22 06:11:21;;;;;;;;;9.00;9.00;;;;;19.69;54.00;101298.63;6277242;22;45307;-85
2022/05/22 06:13:47;;;;;;;;;11.00;8.50;;;;;19.73;54.15;101294.09;6276938;22;45184;-85
2022/05/22 06:16:15;;;;;;;;;9.00;9.00;;;;;19.77;53.27;101296.59;6279264;22;45212;-84
2022/05/22 06:18:42;;;;;;;;;10.25;10.00;;;;;19.82;53.52;101291.09;6276782;22;47189;-81
2022/05/22 06:21:10;;;;;;;;;18.75;17.00;;;;;19.88;53.12;101271.31;6277035;22;45340;-82
2022/05/22 06:23:38;;;;;;;;;48.00;40.25;;;;;19.93;53.53;101277.38;6279495;22;45219;-82
2022/05/22 06:26:05;;;;;;;;;25.50;25.00;;;;;20.00;53.00;101271.75;6277643;22;45189;-82
2022/05/22 06:28:30;;;;;;;;;46.25;37.75;;;;;20.07;53.04;101275.09;6280377;22;46455;-83
2022/05/22 06:30:56;;;;;;;;;39.00;35.00;;;;;20.10;53.16;101261.63;6279149;22;45709;-83
2022/05/22 06:33:21;;;;;;;;;32.25;29.00;;;;;20.15;52.83;101254.28;6278698;22;45433;-86
2022/05/22 06:35:49;;;;;;;;;30.50;29.50;;;;;20.21;52.67;101250.56;6279050;22;45382;-84
2022/05/22 06:41:06;;;;;;;;;12.00;11.00;;;;;20.32;52.02;101231.47;6315722;22;45412;-84
2022/05/22 06:43:31;;;;;;;;;16.75;15.75;;;;;20.39;51.97;101225.81;6315542;22;45372;-84
2022/05/22 06:45:57;;;;;;;;;13.75;12.25;;;;;20.45;52.03;101220.25;6319628;22;45216;-86
2022/05/22 06:48:22;;;;;;;;;15.00;14.00;;;;;20.48;51.69;101222.81;6317695;22;46398;-83
2022/05/22 06:50:50;;;;;;;;;11.00;11.00;;;;;20.51;51.91;101215.59;6284589;22;45880;-83
2022/05/22 06:53:21;;;;;;;;;28.75;28.25;;;;;20.57;51.84;101216.25;6282859;22;45167;-85
2022/05/22 06:55:46;;;;;;;;;20.75;18.75;;;;;20.63;51.53;101216.03;6292080;22;45472;-93
2022/05/22 06:58:12;;;;;;;;;14.75;14.25;;;;;20.71;51.30;101221.09;6285216;22;48095;-85
2022/05/22 07:00:38;;;;;;;;;19.50;14.00;;;;;20.77;51.05;101226.22;6285883;22;45385;-87
2022/05/22 07:03:04;;;;;;;;;9.25;8.25;;;;;20.82;50.67;101208.19;6282851;22;45503;-86
2022/05/22 07:05:30;;;;;;;;;8.00;8.00;;;;;20.89;50.47;101216.81;6311056;22;45405;-86
2022/05/22 07:07:55;;;;;;;;;6.00;5.75;;;;;21.00;50.28;101221.75;6284889;22;47025;-86
2022/05/22 07:11:38;;;;;;;;;7.25;7.00;;;;;21.08;50.13;101225.88;6282551;22;45273;-85
2022/05/22 07:13:06;;;;;;;;;7.00;7.00;;;;;21.11;49.56;101224.88;6308669;22;45087;-85
2022/05/22 07:15:32;;;;;;;;;2.00;2.00;;;;;21.13;50.12;101228.38;6283595;22;45515;-83
2022/05/22 07:17:58;;;;;;;;;6.00;6.00;;;;;21.13;49.80;101221.22;6285211;22;47098;-85
2022/05/22 07:20:26;;;;;;;;;6.00;6.00;;;;;21.11;49.34;101230.22;6281742;22;45251;-84
2022/05/22 07:22:51;;;;;;;;;6.75;6.00;;;;;21.05;49.16;101209.94;6282095;22;45414;-84
2022/05/22 07:25:20;;;;;;;;;6.25;6.25;;;;;21.04;49.17;101168.03;6281694;22;45477;-86
2022/05/22 07:27:46;;;;;;;;;5.25;5.25;;;;;21.08;49.24;101184.84;6281819;22;48040;-86
2022/05/22 07:30:14;;;;;;;;;15.50;14.50;;;;;21.09;49.17;101229.41;6281381;22;45197;-83
2022/05/22 07:32:40;;;;;;;;;6.00;6.00;;;;;21.13;48.84;101242.63;6281818;22;45549;-83
2022/05/22 07:35:08;;;;;;;;;8.75;7.00;;;;;21.18;48.96;101221.03;6281394;22;45434;-84
2022/05/22 07:37:33;;;;;;;;;7.75;7.00;;;;;21.24;48.47;101222.59;6281495;22;47640;-84
2022/05/22 07:40:01;;;;;;;;;8.00;8.00;;;;;21.28;48.50;101208.16;6309062;22;45345;-84
2022/05/22 07:42:29;;;;;;;;;8.50;7.25;;;;;21.34;48.58;101207.88;6310092;22;45219;-83
2022/05/22 07:45:10;;;;;;;;;8.25;8.25;;;;;21.44;48.45;101214.66;6282319;22;45477;-88
2022/05/22 07:47:35;;;;;;;;;14.25;10.25;;;;;21.52;48.33;101209.84;6282288;22;46842;-85
2022/05/22 07:52:46;;;;;;;;;9.75;7.25;;;;;21.70;47.97;101201.94;6310137;22;45263;-82
2022/05/22 07:55:23;;;;;;;;;14.75;14.50;;;;;21.74;47.85;101191.03;6308323;22;45196;-81
2022/05/22 07:57:49;;;;;;;;;5.25;5.25;;;;;21.79;47.79;101185.50;6311365;22;45229;-81
2022/05/22 08:00:20;;;;;;;;;7.75;7.50;;;;;21.87;47.55;101194.06;6282518;22;45109;-81
2022/05/22 08:02:46;;;;;;;;;6.67;6.33;;;;;21.96;47.53;101177.56;6311251;22;45187;-82
2022/05/22 08:05:14;;;;;;;;;6.00;4.67;;;;;22.11;47.43;101175.16;6283442;22;45405;-83
2022/05/22 08:07:39;;;;;;;;;5.00;4.67;;;;;22.22;47.09;101152.28;6311253;22;45226;-78
2022/05/22 08:10:07;;;;;;;;;6.00;5.00;;;;;22.33;46.13;101135.69;6283445;22;45851;-77
2022/05/22 08:12:41;;;;;;;;;6.00;6.00;;;;;22.45;46.23;101150.34;6312001;22;45345;-78
2022/05/22 08:15:08;;;;;;;;;5.00;5.00;;;;;22.56;46.05;101145.38;6312647;22;45409;-81
2022/05/22 08:17:41;;;;;;;;;6.75;6.00;;;;;22.64;46.02;101127.09;6314611;22;45409;-85
2022/05/22 08:21:10;;;;;;;;;;;;;;;;;;;;;
2022/05/22 08:24:24;;;;;;;;;4.00;4.00;;;;;23.05;45.47;101124.22;6289945;22;68769;-86
2022/05/22 08:31:18;;;;;;;;;;;;;;;;;;;;;
2022/05/22 08:59:41;;;;;;;;;;;;;;;;;;;;;
2022/05/22 09:03:07;;;;;;;;;;;;;;;;;;;;;
2022/05/22 09:05:47;;;;;;;;;;;;;;;;;;;;;
2022/05/22 09:09:18;;;;;;;;;;;;;;;;;;;;;
2022/05/22 09:15:34;;;;;;;;;3.00;3.00;;;;;25.22;39.96;101085.59;6028831;23;45501;-83
2022/05/22 09:18:09;;;;;;;;;4.67;3.67;;;;;25.39;39.47;101100.75;6069643;23;45224;-79
2022/05/22 09:20:34;;;;;;;;;4.67;4.67;;;;;25.49;39.21;101104.63;6080320;23;45414;-79
2022/05/22 09:23:22;;;;;;;;;2.00;2.00;;;;;25.60;39.45;101085.09;6300570;22;45932;-80
2022/05/22 09:29:51;;;;;;;;;3.67;3.67;;;;;25.84;38.71;101071.97;6242327;22;45519;-80
2022/05/22 09:32:51;;;;;;;;;4.00;4.00;;;;;25.87;38.37;101067.22;6279664;22;45319;-79
2022/05/22 09:36:13;;;;;;;;;4.00;4.00;;;;;25.87;38.07;101064.53;6308142;22;45815;-80
2022/05/22 09:38:47;;;;;;;;;3.33;3.33;;;;;25.80;37.24;101065.88;6280531;22;45376;-79
2022/05/22 09:41:40;;;;;;;;;3.00;3.00;;;;;25.58;36.85;101052.84;6308624;22;45663;-80
2022/05/22 09:44:19;;;;;;;;;4.00;4.00;;;;;25.41;36.61;101056.56;6309234;22;45424;-80
2022/05/22 09:47:21;;;;;;;;;3.00;3.00;;;;;25.21;36.71;101040.75;6280691;22;46125;-81
2022/05/22 09:50:07;;;;;;;;;4.33;4.33;;;;;25.06;37.28;101037.09;6307749;22;45429;-81
2022/05/22 09:52:54;;;;;;;;;4.00;4.00;;;;;25.04;37.45;101031.78;6281861;22;45315;-78
2022/05/22 09:55:32;;;;;;;;;3.67;3.67;;;;;25.06;37.27;101016.41;6305920;22;45473;-80
2022/05/22 09:58:03;;;;;;;;;5.33;4.00;;;;;25.10;36.90;101000.94;6306459;22;48281;-78
2022/05/22 10:00:55;;;;;;;;;4.00;4.00;;;;;25.12;36.91;100999.00;6309544;22;45393;-78
2022/05/22 10:03:33;;;;;;;;;3.00;3.00;;;;;25.21;36.33;101003.03;6278596;22;45497;-78
2022/05/22 10:06:15;;;;;;;;;3.33;3.00;;;;;25.24;36.48;100995.59;6279273;22;45661;-78
2022/05/22 10:08:49;;;;;;;;;4.00;3.00;;;;;25.29;36.15;100990.81;6306981;22;46240;-78
2022/05/22 10:11:32;;;;;;;;;4.33;4.33;;;;;25.29;36.56;100988.09;6279956;22;45595;-78
2022/05/22 10:14:46;;;;;;;;;3.00;3.00;;;;;25.29;36.07;100982.72;6281805;22;45353;-78
2022/05/22 10:17:43;;;;;;;;;2.67;2.67;;;;;25.29;36.16;100979.16;6281476;22;45193;-79
2022/05/22 10:20:50;;;;;;;;;2.67;2.67;;;;;25.24;36.16;100981.28;6281640;22;47464;-78
2022/05/22 10:23:30;;;;;;;;;5.00;3.67;;;;;25.18;35.91;100990.59;6281983;22;45408;-79
2022/05/22 10:26:18;;;;;;;;;2.00;2.00;;;;;25.15;35.94;100977.28;6281273;22;45157;-78
2022/05/22 10:29:02;;;;;;;;;4.00;4.00;;;;;25.19;36.18;100962.69;6281835;22;45438;-79
2022/05/22 10:32:05;;;;;;;;;2.67;2.67;;;;;25.22;35.98;100951.69;6280627;22;46733;-79
2022/05/22 10:34:31;;;;;;;;;3.33;3.33;;;;;25.27;35.79;100944.19;6309634;22;45228;-79
2022/05/22 10:37:07;;;;;;;;;4.00;4.00;;;;;25.30;35.06;100933.22;6282300;22;45255;-79
2022/05/22 10:39:33;;;;;;;;;5.00;5.00;;;;;25.28;35.78;100926.19;6307857;22;45263;-78
2022/05/22 10:44:50;;;;;;;;;6.00;6.00;;;;;25.17;35.92;100915.22;6310391;22;45160;-79
2022/05/22 10:47:26;;;;;;;;;7.33;7.33;;;;;25.09;36.17;100910.28;6309732;22;45239;-79
2022/05/22 10:49:52;;;;;;;;;5.67;5.67;;;;;25.05;36.50;100904.22;6281647;22;45279;-78
2022/05/22 10:52:30;;;;;;;;;9.33;7.33;;;;;25.01;36.27;100912.56;6311178;22;46264;-79
2022/05/22 10:54:57;;;;;;;;;8.75;8.75;;;;;24.95;36.41;100908.44;6309798;22;45275;-79
2022/05/22 10:57:24;;;;;;;;;7.00;6.33;;;;;24.92;36.41;100902.38;6307901;22;45624;-79
2022/05/22 10:59:50;;;;;;;;;6.67;6.33;;;;;24.79;36.20;100899.56;6281815;22;45315;-78
2022/05/22 11:02:36;;;;;;;;;6.00;6.00;;;;;24.68;36.90;100902.03;6281685;22;46271;-79
2022/05/22 11:05:02;;;;;;;;;2.67;1.33;;;;;24.62;37.19;100901.44;6307126;22;45631;-78
2022/05/22 11:10:35;;;;;;;;;7.67;6.67;;;;;24.38;37.51;100900.19;6292350;22;45264;-79
2022/05/22 11:13:10;;;;;;;;;4.33;4.33;;;;;24.28;37.45;100899.00;6307529;22;47093;-79
2022/05/22 11:15:42;;;;;;;;;5.67;4.67;;;;;24.20;37.29;100904.81;6281674;22;45521;-79
2022/05/22 11:18:27;;;;;;;;;6.00;5.00;;;;;24.13;37.55;100904.28;6309780;22;45151;-79
2022/05/22 11:21:02;;;;;;;;;5.67;4.33;;;;;24.10;37.78;100903.59;6281629;22;45325;-79
2022/05/22 11:23:48;;;;;;;;;5.00;5.00;;;;;24.11;37.39;100906.22;6281055;22;46105;-79
2022/05/22 11:26:39;;;;;;;;;4.00;4.00;;;;;24.05;37.93;100903.88;6281441;22;45108;-79
2022/05/22 11:29:26;;;;;;;;;4.67;4.67;;;;;24.02;38.22;100897.81;6309946;22;45380;-79
2022/05/22 11:32:13;;;;;;;;;4.00;4.00;;;;;23.96;39.02;100886.44;6281730;22;45138;-78
2022/05/22 11:34:48;;;;;;;;;6.00;5.00;;;;;23.96;40.14;100891.81;6281139;22;48624;-79
2022/05/22 11:37:26;;;;;;;;;6.67;6.00;;;;;23.99;40.11;100897.03;6281856;22;45361;-79
2022/05/22 11:40:13;;;;;;;;;6.00;4.33;;;;;24.03;39.78;100911.19;6281948;22;45415;-79
2022/05/22 11:42:40;;;;;;;;;7.00;6.67;;;;;24.11;39.89;100905.31;6282208;22;45403;-79
2022/05/22 11:45:08;;;;;;;;;11.75;10.75;;;;;24.20;40.15;100910.19;6282311;22;47869;-79
2022/05/22 11:47:39;;;;;;;;;7.33;5.67;;;;;24.28;39.65;100917.81;6310165;22;45211;-79
2022/05/22 11:50:43;;;;;;;;;9.00;8.00;;;;;24.31;39.36;100921.19;6282251;22;45374;-78
2022/05/22 11:53:35;;;;;;;;;7.75;7.25;;;;;24.34;40.96;100914.78;6281946;22;45299;-79
2022/05/22 11:56:48;;;;;;;;;7.00;7.00;;;;;24.30;41.12;100907.81;6254248;22;47043;-79
2022/05/22 11:59:32;;;;;;;;;7.25;7.25;;;;;24.24;40.19;100900.97;6245727;22;45161;-79
2022/05/22 12:02:28;;;;;;;;;4.00;4.00;;;;;24.18;39.88;100904.03;6277261;22;45304;-79
2022/05/22 12:05:19;;;;;;;;;6.00;6.00;;;;;24.12;39.74;100905.25;6310622;22;45223;-78
2022/05/22 12:08:08;;;;;;;;;6.00;5.00;;;;;24.07;39.35;100896.59;6310379;22;45296;-79
2022/05/22 12:10:38;;;;;;;;;5.33;4.67;;;;;24.06;39.13;100899.34;6310182;22;45137;-79
2022/05/22 12:13:17;;;;;;;;;3.00;3.00;;;;;24.13;39.11;100892.66;6310722;22;45329;-79
2022/05/22 12:16:21;;;;;;;;;5.67;4.67;;;;;24.18;39.43;100894.13;6282310;22;46109;-79
2022/05/22 12:18:52;;;;;;;;;4.33;4.00;;;;;24.23;38.79;100903.78;6247125;22;47063;-79
2022/05/22 12:21:48;;;;;;;;;5.33;5.33;;;;;24.31;38.99;100896.97;6310589;22;45377;-79
2022/05/22 12:24:25;;;;;;;;;6.00;6.00;;;;;24.41;39.36;100895.47;6279841;22;45409;-79
2022/05/22 12:26:54;;;;;;;;;5.00;5.00;;;;;24.42;38.92;100882.88;6281243;22;45381;-79
2022/05/22 12:29:27;;;;;;;;;8.00;8.00;;;;;24.47;39.35;100874.59;6281450;22;45990;-79
2022/05/22 12:31:58;;;;;;;;;6.25;5.50;;;;;24.53;39.55;100877.75;6281420;22;45257;-79
2022/05/22 12:34:37;;;;;;;;;6.33;6.33;;;;;24.59;39.21;100881.91;6281848;22;45364;-79
2022/05/22 12:37:09;;;;;;;;;5.00;5.00;;;;;24.58;38.96;100877.50;6282351;22;45743;-79
2022/05/22 12:39:53;;;;;;;;;5.25;5.25;;;;;24.58;38.62;100867.56;6281759;22;45666;-79
2022/05/22 12:42:32;;;;;;;;;5.33;5.00;;;;;24.58;38.75;100862.19;6282252;22;45789;-79
2022/05/22 12:44:58;;;;;;;;;5.00;4.00;;;;;24.53;39.09;100860.75;6310946;22;45235;-78
2022/05/22 12:47:34;;;;;;;;;6.00;5.00;;;;;24.49;39.40;100867.28;6281734;22;45501;-78
2022/05/22 12:50:05;;;;;;;;;6.00;5.00;;;;;24.47;39.17;100867.38;6310083;22;45356;-79
2022/05/22 12:52:31;;;;;;;;;4.00;4.00;;;;;24.47;38.85;100863.81;6282037;22;45686;-78